createdAt,value
2024-03-24T00:00:28.679Z,62.19
2024-03-24T00:01:55.260Z,62.31
2024-03-24T00:03:04.335Z,62.41
2024-03-24T00:04:12.211Z,62.60
2024-03-24T00:05:18.868Z,62.57
2024-03-24T00:06:25.676Z,62.44
2024-03-24T00:07:32.010Z,62.74
2024-03-24T00:08:38.656Z,62.91
2024-03-24T00:09:45.391Z,62.90
2024-03-24T00:10:51.902Z,63.14
2024-03-24T00:11:57.804Z,63.12
2024-03-24T00:13:04.622Z,63.16
2024-03-24T00:14:12.065Z,63.40
2024-03-24T00:15:18.672Z,63.48
2024-03-24T00:16:25.101Z,63.48
2024-03-24T00:17:31.547Z,63.42
2024-03-24T00:18:37.826Z,63.60
2024-03-24T00:19:44.275Z,63.72
2024-03-24T00:20:50.414Z,63.64
2024-03-24T00:21:56.887Z,63.74
2024-03-24T00:23:03.329Z,63.72
2024-03-24T00:24:09.979Z,63.77
2024-03-24T00:25:17.057Z,63.87
2024-03-24T00:26:23.221Z,63.82
2024-03-24T00:27:30.317Z,63.88
2024-03-24T00:28:36.595Z,63.94
2024-03-24T00:29:43.057Z,64.02
2024-03-24T00:30:49.366Z,64.04
2024-03-24T00:31:55.902Z,64.24
2024-03-24T00:33:02.720Z,64.27
2024-03-24T00:34:08.831Z,64.47
2024-03-24T00:35:15.285Z,64.50
2024-03-24T00:36:21.770Z,64.50
2024-03-24T00:37:29.981Z,64.44
2024-03-24T00:38:36.143Z,64.65
2024-03-24T00:39:44.992Z,64.75
2024-03-24T00:40:52.287Z,64.86
2024-03-24T00:41:58.635Z,64.77
2024-03-24T00:43:05.120Z,64.68
2024-03-24T00:44:11.454Z,64.67
2024-03-24T00:45:18.806Z,64.67
2024-03-24T00:46:25.621Z,64.74
2024-03-24T00:47:32.266Z,64.93
2024-03-24T00:48:38.743Z,64.98
2024-03-24T00:49:45.187Z,64.97
2024-03-24T00:50:52.578Z,64.87
2024-03-24T00:51:59.115Z,64.79
2024-03-24T00:53:07.005Z,64.81
2024-03-24T00:54:13.507Z,64.85
2024-03-24T00:55:19.888Z,64.60
2024-03-24T00:56:26.512Z,64.82
2024-03-24T00:57:33.377Z,64.84
2024-03-24T00:58:41.864Z,64.68
2024-03-24T00:59:48.793Z,64.74
2024-03-24T01:00:56.318Z,64.83
2024-03-24T01:02:03.011Z,64.80
2024-03-24T01:03:09.937Z,64.85
2024-03-24T01:04:17.167Z,64.83
2024-03-24T01:05:23.951Z,64.91
2024-03-24T01:06:31.225Z,64.99
2024-03-24T01:07:37.525Z,64.96
2024-03-24T01:08:44.143Z,65.08
2024-03-24T01:09:56.170Z,65.51
2024-03-24T01:11:08.469Z,65.36
2024-03-24T01:12:14.595Z,65.39
2024-03-24T01:13:23.536Z,65.23
2024-03-24T01:14:32.791Z,65.33
2024-03-24T01:15:43.104Z,65.34
2024-03-24T01:16:49.372Z,65.78
2024-03-24T01:17:55.809Z,65.64
2024-03-24T01:19:02.172Z,65.55
2024-03-24T01:20:12.395Z,65.49
2024-03-24T01:21:21.204Z,65.20
2024-03-24T01:22:28.433Z,65.49
2024-03-24T01:23:34.990Z,65.50
2024-03-24T01:24:41.709Z,65.50
2024-03-24T01:25:48.170Z,65.37
2024-03-24T01:26:56.411Z,65.41
2024-03-24T01:28:02.658Z,65.71
2024-03-24T01:29:11.438Z,66.18
2024-03-24T01:30:17.722Z,66.00
2024-03-24T01:31:27.443Z,65.82
2024-03-24T01:32:33.947Z,66.00
2024-03-24T01:33:39.952Z,66.25
2024-03-24T01:34:46.083Z,66.34
2024-03-24T01:35:52.239Z,66.21
2024-03-24T01:36:58.410Z,66.45
2024-03-24T01:38:04.764Z,66.53
2024-03-24T01:39:11.068Z,66.47
2024-03-24T01:40:17.695Z,66.48
2024-03-24T01:41:23.829Z,66.12
2024-03-24T01:42:31.213Z,66.25
2024-03-24T01:43:37.446Z,66.92
2024-03-24T01:44:43.933Z,66.36
2024-03-24T01:45:50.450Z,66.09
2024-03-24T01:46:56.416Z,66.16
2024-03-24T01:48:03.419Z,66.26
2024-03-24T01:49:09.620Z,66.33
2024-03-24T01:50:16.713Z,66.38
2024-03-24T01:51:23.813Z,66.40
2024-03-24T01:52:30.639Z,66.63
2024-03-24T01:53:38.835Z,66.52
2024-03-24T01:54:46.066Z,66.30
2024-03-24T01:55:52.690Z,66.34
2024-03-24T01:57:01.164Z,66.97
2024-03-24T01:58:08.612Z,66.56
2024-03-24T01:59:14.818Z,66.27
2024-03-24T02:00:23.167Z,66.31
2024-03-24T02:01:29.853Z,66.25
2024-03-24T02:02:35.804Z,66.23
2024-03-24T02:03:43.988Z,66.15
2024-03-24T02:04:51.717Z,66.27
2024-03-24T02:05:59.650Z,66.37
2024-03-24T02:07:07.944Z,66.01
2024-03-24T02:08:14.674Z,66.15
2024-03-24T02:09:22.462Z,66.22
2024-03-24T02:10:30.277Z,66.16
2024-03-24T02:11:37.020Z,66.12
2024-03-24T02:12:43.457Z,66.23
2024-03-24T02:13:57.956Z,66.26
2024-03-24T02:15:03.963Z,66.19
2024-03-24T02:16:11.731Z,66.17
2024-03-24T02:17:20.432Z,66.24
2024-03-24T02:18:26.764Z,66.47
2024-03-24T02:19:32.782Z,66.53
2024-03-24T02:20:39.847Z,66.27
2024-03-24T02:21:45.828Z,66.40
2024-03-24T02:22:52.496Z,66.52
2024-03-24T02:23:59.361Z,66.42
2024-03-24T02:25:08.087Z,66.61
2024-03-24T02:26:14.209Z,66.56
2024-03-24T02:27:20.772Z,66.69
2024-03-24T02:28:27.527Z,66.62
2024-03-24T02:29:34.604Z,66.67
2024-03-24T02:30:40.660Z,67.26
2024-03-24T02:31:47.485Z,66.94
2024-03-24T02:32:53.745Z,66.82
2024-03-24T02:33:59.931Z,66.88
2024-03-24T02:35:08.884Z,67.54
2024-03-24T02:36:13.139Z,67.40
2024-03-24T02:37:19.502Z,67.50
2024-03-24T02:38:26.141Z,67.21
2024-03-24T02:39:32.834Z,67.38
2024-03-24T02:40:39.389Z,67.66
2024-03-24T02:41:45.671Z,67.67
2024-03-24T02:42:52.199Z,67.79
2024-03-24T02:43:58.533Z,67.63
2024-03-24T02:45:08.553Z,67.79
2024-03-24T02:46:14.739Z,67.72
2024-03-24T02:47:21.019Z,68.03
2024-03-24T02:48:30.531Z,67.91
2024-03-24T02:49:37.064Z,67.66
2024-03-24T02:50:44.767Z,68.05
2024-03-24T02:51:51.339Z,68.33
2024-03-24T02:52:57.871Z,68.31
2024-03-24T02:54:04.583Z,68.45
2024-03-24T02:55:11.390Z,68.47
2024-03-24T02:56:17.669Z,68.77
2024-03-24T02:57:23.916Z,69.06
2024-03-24T02:58:30.702Z,69.16
2024-03-24T02:59:37.743Z,68.81
2024-03-24T03:00:46.158Z,68.63
2024-03-24T03:01:52.342Z,68.61
2024-03-24T03:02:58.567Z,68.43
2024-03-24T03:04:05.812Z,69.00
2024-03-24T03:05:12.533Z,69.11
2024-03-24T03:06:18.915Z,69.23
2024-03-24T03:07:25.536Z,69.13
2024-03-24T03:08:32.012Z,69.03
2024-03-24T03:09:38.735Z,69.15
2024-03-24T03:10:46.115Z,68.94
2024-03-24T03:11:52.402Z,69.01
2024-03-24T03:12:59.664Z,68.98
2024-03-24T03:14:05.813Z,69.02
2024-03-24T03:15:16.314Z,68.96
2024-03-24T03:16:22.715Z,68.95
2024-03-24T03:17:28.708Z,68.85
2024-03-24T03:18:35.503Z,68.90
2024-03-24T03:19:42.322Z,69.09
2024-03-24T03:20:49.150Z,68.85
2024-03-24T03:21:55.206Z,68.63
2024-03-24T03:23:01.963Z,68.98
2024-03-24T03:24:10.183Z,68.74
2024-03-24T03:25:16.466Z,68.90
2024-03-24T03:26:23.384Z,68.80
2024-03-24T03:27:30.107Z,68.73
2024-03-24T03:28:36.143Z,68.81
2024-03-24T03:29:42.856Z,68.79
2024-03-24T03:30:50.032Z,68.89
2024-03-24T03:31:56.184Z,68.84
2024-03-24T03:33:06.735Z,68.72
2024-03-24T03:34:15.133Z,68.63
2024-03-24T03:35:21.304Z,68.49
2024-03-24T03:36:27.338Z,68.52
2024-03-24T03:37:33.725Z,68.43
2024-03-24T03:38:40.095Z,68.60
2024-03-24T03:39:47.373Z,68.55
2024-03-24T03:40:53.365Z,68.47
2024-03-24T03:42:00.732Z,68.50
2024-03-24T03:43:08.450Z,68.44
2024-03-24T03:44:15.112Z,68.60
2024-03-24T03:45:25.017Z,68.63
2024-03-24T03:46:31.436Z,68.33
2024-03-24T03:47:38.355Z,68.25
2024-03-24T03:48:45.448Z,68.46
2024-03-24T03:49:54.264Z,68.41
2024-03-24T03:51:08.376Z,68.26
2024-03-24T03:52:14.598Z,68.24
2024-03-24T03:53:27.312Z,68.13
2024-03-24T03:54:35.449Z,68.05
2024-03-24T03:55:42.395Z,68.15
2024-03-24T03:56:50.854Z,67.98
2024-03-24T03:57:58.065Z,68.03
2024-03-24T03:59:04.680Z,68.04
2024-03-24T04:00:14.214Z,68.15
2024-03-24T04:01:21.070Z,68.10
2024-03-24T04:02:27.649Z,67.95
2024-03-24T04:03:36.864Z,68.06
2024-03-24T04:04:42.976Z,68.09
2024-03-24T04:05:49.375Z,68.22
2024-03-24T04:06:55.696Z,68.18
2024-03-24T04:08:01.854Z,67.95
2024-03-24T04:09:10.056Z,68.06
2024-03-24T04:10:19.299Z,68.06
2024-03-24T04:11:25.723Z,68.16
2024-03-24T04:12:32.753Z,68.28
2024-03-24T04:13:39.164Z,68.11
2024-03-24T04:14:46.729Z,68.15
2024-03-24T04:15:52.786Z,68.12
2024-03-24T04:16:59.690Z,68.05
2024-03-24T04:18:07.973Z,68.02
2024-03-24T04:19:14.277Z,68.06
2024-03-24T04:20:20.804Z,68.15
2024-03-24T04:21:27.250Z,68.26
2024-03-24T04:22:34.547Z,68.45
2024-03-24T04:23:40.724Z,68.47
2024-03-24T04:24:50.809Z,68.38
2024-03-24T04:25:59.040Z,68.29
2024-03-24T04:27:06.428Z,68.52
2024-03-24T04:28:13.810Z,68.62
2024-03-24T04:29:19.944Z,68.42
2024-03-24T04:30:26.348Z,68.64
2024-03-24T04:31:33.050Z,68.61
2024-03-24T04:32:39.756Z,68.80
2024-03-24T04:33:45.771Z,68.52
2024-03-24T04:34:53.827Z,68.62
2024-03-24T04:35:59.775Z,68.73
2024-03-24T04:37:06.681Z,68.85
2024-03-24T04:38:12.518Z,68.74
2024-03-24T04:39:20.381Z,68.75
2024-03-24T04:40:27.059Z,69.02
2024-03-24T04:41:33.331Z,69.02
2024-03-24T04:42:39.601Z,69.05
2024-03-24T04:43:46.239Z,68.91
2024-03-24T04:44:52.550Z,68.89
2024-03-24T04:46:00.385Z,69.04
2024-03-24T04:47:08.016Z,68.90
2024-03-24T04:48:14.003Z,68.97
2024-03-24T04:49:21.887Z,69.30
2024-03-24T04:50:29.894Z,69.16
2024-03-24T04:51:36.903Z,69.29
2024-03-24T04:52:45.464Z,69.12
2024-03-24T04:53:53.745Z,69.15
2024-03-24T04:55:00.447Z,69.31
2024-03-24T04:56:07.903Z,69.30
2024-03-24T04:57:13.982Z,69.43
2024-03-24T04:58:20.340Z,69.63
2024-03-24T04:59:26.256Z,69.50
2024-03-24T05:00:33.342Z,69.52
2024-03-24T05:01:39.833Z,69.55
2024-03-24T05:02:47.347Z,69.68
2024-03-24T05:03:54.343Z,69.47
2024-03-24T05:05:01.112Z,69.69
2024-03-24T05:06:08.507Z,69.61
2024-03-24T05:07:14.670Z,69.53
2024-03-24T05:08:20.738Z,69.48
2024-03-24T05:09:27.462Z,69.69
2024-03-24T05:10:40.837Z,69.41
2024-03-24T05:11:48.350Z,69.70
2024-03-24T05:12:54.966Z,69.63
2024-03-24T05:14:02.155Z,69.78
2024-03-24T05:15:11.307Z,69.57
2024-03-24T05:16:19.029Z,69.51
2024-03-24T05:17:25.430Z,69.26
2024-03-24T05:18:32.658Z,69.38
2024-03-24T05:19:38.990Z,69.37
2024-03-24T05:20:47.418Z,69.30
2024-03-24T05:21:53.768Z,69.45
2024-03-24T05:23:00.753Z,69.40
2024-03-24T05:24:08.544Z,69.37
2024-03-24T05:25:15.631Z,69.17
2024-03-24T05:26:21.971Z,69.16
2024-03-24T05:27:29.901Z,69.12
2024-03-24T05:28:46.494Z,69.15
2024-03-24T05:30:01.923Z,69.11
2024-03-24T05:31:08.868Z,69.08
2024-03-24T05:32:15.434Z,69.19
2024-03-24T05:33:21.786Z,69.07
2024-03-24T05:34:27.749Z,69.00
2024-03-24T05:35:33.937Z,69.02
2024-03-24T05:36:40.051Z,69.12
2024-03-24T05:37:46.348Z,69.03
2024-03-24T05:38:53.884Z,68.87
2024-03-24T05:40:00.653Z,68.55
2024-03-24T05:41:08.237Z,68.45
2024-03-24T05:42:14.941Z,68.20
2024-03-24T05:43:21.335Z,68.22
2024-03-24T05:44:27.473Z,68.02
2024-03-24T05:45:36.726Z,68.05
2024-03-24T05:46:43.367Z,67.99
2024-03-24T05:47:51.055Z,67.80
2024-03-24T05:48:57.881Z,67.51
2024-03-24T05:50:04.821Z,67.26
2024-03-24T05:51:11.279Z,67.28
2024-03-24T05:52:19.527Z,67.19
2024-03-24T05:53:27.686Z,66.88
2024-03-24T05:54:34.188Z,66.71
2024-03-24T05:55:40.670Z,66.58
2024-03-24T05:56:47.981Z,66.62
2024-03-24T05:57:54.403Z,66.56
2024-03-24T05:59:02.113Z,66.32
2024-03-24T06:00:13.581Z,66.29
2024-03-24T06:01:20.035Z,66.21
2024-03-24T06:02:26.579Z,65.76
2024-03-24T06:03:34.670Z,65.76
2024-03-24T06:04:41.008Z,65.54
2024-03-24T06:05:48.151Z,65.13
2024-03-24T06:06:54.830Z,65.12
2024-03-24T06:08:01.243Z,65.01
2024-03-24T06:09:07.895Z,64.92
2024-03-24T06:10:14.971Z,64.77
2024-03-24T06:11:21.017Z,64.59
2024-03-24T06:12:30.079Z,64.43
2024-03-24T06:13:36.626Z,64.46
2024-03-24T06:14:44.842Z,64.53
2024-03-24T06:15:50.998Z,64.49
2024-03-24T06:16:57.217Z,64.45
2024-03-24T06:18:09.598Z,64.67
2024-03-24T06:19:16.242Z,64.55
2024-03-24T06:20:22.765Z,64.66
2024-03-24T06:21:29.285Z,64.67
2024-03-24T06:22:35.454Z,65.01
2024-03-24T06:23:41.489Z,64.79
2024-03-24T06:24:48.333Z,64.81
2024-03-24T06:25:54.859Z,64.73
2024-03-24T06:27:00.974Z,64.79
2024-03-24T06:28:08.932Z,64.84
2024-03-24T06:29:15.606Z,64.90
2024-03-24T06:30:21.941Z,64.76
2024-03-24T06:31:28.439Z,64.88
2024-03-24T06:32:34.849Z,64.80
2024-03-24T06:33:42.184Z,64.86
2024-03-24T06:34:49.037Z,64.85
2024-03-24T06:35:55.708Z,64.64
2024-03-24T06:37:02.134Z,64.58
2024-03-24T06:38:09.415Z,64.58
2024-03-24T06:39:15.586Z,64.35
2024-03-24T06:40:24.441Z,64.46
2024-03-24T06:41:31.187Z,64.27
2024-03-24T06:42:44.440Z,64.22
2024-03-24T06:43:50.631Z,64.41
2024-03-24T06:44:58.935Z,64.15
2024-03-24T06:46:07.195Z,63.80
2024-03-24T06:47:13.407Z,64.02
2024-03-24T06:48:19.718Z,64.08
2024-03-24T06:49:26.277Z,63.69
2024-03-24T06:50:33.823Z,63.36
2024-03-24T06:51:40.556Z,63.16
2024-03-24T06:52:47.135Z,62.82
2024-03-24T06:53:53.848Z,62.55
2024-03-24T06:55:00.390Z,62.72
2024-03-24T06:56:10.365Z,62.45
2024-03-24T06:57:16.732Z,62.48
2024-03-24T06:58:25.008Z,61.96
2024-03-24T06:59:31.603Z,62.25
2024-03-24T07:00:37.679Z,61.51
2024-03-24T07:01:44.590Z,61.48
2024-03-24T07:02:51.580Z,62.58
2024-03-24T07:03:58.323Z,61.58
2024-03-24T07:05:05.702Z,61.94
2024-03-24T07:06:14.788Z,61.58
2024-03-24T07:07:20.879Z,61.08
2024-03-24T07:08:26.952Z,60.34
2024-03-24T07:09:34.801Z,60.34
2024-03-24T07:10:41.184Z,59.93
2024-03-24T07:11:47.228Z,59.47
2024-03-24T07:12:53.621Z,59.31
2024-03-24T07:14:00.081Z,59.22
2024-03-24T07:15:08.977Z,62.09
2024-03-24T07:16:15.411Z,59.69
2024-03-24T07:17:22.330Z,59.32
2024-03-24T07:18:29.154Z,59.33
2024-03-24T07:19:36.336Z,59.24
2024-03-24T07:20:42.274Z,59.06
2024-03-24T07:21:49.766Z,58.87
2024-03-24T07:22:56.900Z,58.44
2024-03-24T07:24:03.266Z,57.84
2024-03-24T07:25:11.456Z,57.50
2024-03-24T07:26:18.142Z,57.25
2024-03-24T07:27:24.803Z,56.33
2024-03-24T07:28:30.941Z,56.11
2024-03-24T07:29:37.901Z,56.30
2024-03-24T07:30:44.492Z,56.43
2024-03-24T07:31:50.514Z,56.05
2024-03-24T07:32:57.333Z,56.01
2024-03-24T07:34:05.659Z,55.88
2024-03-24T07:35:12.764Z,55.49
2024-03-24T07:36:18.909Z,55.78
2024-03-24T07:37:25.450Z,55.26
2024-03-24T07:38:36.047Z,55.05
2024-03-24T07:39:43.218Z,55.03
2024-03-24T07:40:49.604Z,54.73
2024-03-24T07:41:56.046Z,54.44
2024-03-24T07:43:02.595Z,54.76
2024-03-24T07:44:08.656Z,54.93
2024-03-24T07:45:17.031Z,55.06
2024-03-24T07:46:23.156Z,54.82
2024-03-24T07:47:29.916Z,54.84
2024-03-24T07:48:39.753Z,55.09
2024-03-24T07:49:48.052Z,55.39
2024-03-24T07:50:55.540Z,55.01
2024-03-24T07:52:02.119Z,54.93
2024-03-24T07:53:08.080Z,54.81
2024-03-24T07:54:16.391Z,54.81
2024-03-24T07:55:23.464Z,54.80
2024-03-24T07:56:29.819Z,54.68
2024-03-24T07:57:39.102Z,54.65
2024-03-24T07:58:45.438Z,54.49
2024-03-24T07:59:54.251Z,54.45
2024-03-24T08:01:02.186Z,54.27
2024-03-24T08:02:12.820Z,54.53
2024-03-24T08:03:20.128Z,54.35
2024-03-24T08:04:26.591Z,54.09
2024-03-24T08:05:34.684Z,54.23
2024-03-24T08:06:44.735Z,54.24
2024-03-24T08:07:53.283Z,54.21
2024-03-24T08:09:01.589Z,54.31
2024-03-24T08:10:09.030Z,53.64
2024-03-24T08:11:15.251Z,53.76
2024-03-24T08:12:21.708Z,53.48
2024-03-24T08:13:31.414Z,53.21
2024-03-24T08:14:42.901Z,53.15
2024-03-24T08:15:49.926Z,53.45
2024-03-24T08:16:59.453Z,53.08
2024-03-24T08:18:06.139Z,52.22
2024-03-24T08:19:12.675Z,52.14
2024-03-24T08:20:19.764Z,52.56
2024-03-24T08:21:25.950Z,52.45
2024-03-24T08:22:32.331Z,52.22
2024-03-24T08:23:39.794Z,51.75
2024-03-24T08:24:49.659Z,51.51
2024-03-24T08:25:55.902Z,51.50
2024-03-24T08:27:02.451Z,50.90
2024-03-24T08:28:11.629Z,51.19
2024-03-24T08:29:16.298Z,51.24
2024-03-24T08:30:22.686Z,51.28
2024-03-24T08:31:29.214Z,50.98
2024-03-24T08:32:37.117Z,50.72
2024-03-24T08:33:43.802Z,50.49
2024-03-24T08:34:52.276Z,50.80
2024-03-24T08:35:58.736Z,50.66
2024-03-24T08:37:04.908Z,50.30
2024-03-24T08:38:11.380Z,49.42
2024-03-24T08:39:17.722Z,49.59
2024-03-24T08:40:28.710Z,49.09
2024-03-24T08:41:38.989Z,48.91
2024-03-24T08:42:45.056Z,48.71
2024-03-24T08:43:51.543Z,48.21
2024-03-24T08:44:57.730Z,47.83
2024-03-24T08:46:04.263Z,47.65
2024-03-24T08:47:10.811Z,47.78
2024-03-24T08:48:18.585Z,47.67
2024-03-24T08:49:27.717Z,47.13
2024-03-24T08:50:33.900Z,46.24
2024-03-24T08:51:40.504Z,46.04
2024-03-24T08:52:46.572Z,46.20
2024-03-24T08:53:52.755Z,46.07
2024-03-24T08:55:00.694Z,46.32
2024-03-24T08:56:08.599Z,45.87
2024-03-24T08:57:14.846Z,45.91
2024-03-24T08:58:21.688Z,45.01
2024-03-24T08:59:30.221Z,44.71
2024-03-24T09:00:36.831Z,44.75
2024-03-24T09:01:43.456Z,43.64
2024-03-24T09:02:49.912Z,43.72
2024-03-24T09:03:56.174Z,43.90
2024-03-24T09:05:02.765Z,43.96
2024-03-24T09:06:09.867Z,43.99
2024-03-24T09:07:16.108Z,43.73
2024-03-24T09:08:22.547Z,44.09
2024-03-24T09:09:28.965Z,42.25
2024-03-24T09:10:35.639Z,41.44
2024-03-24T09:11:42.109Z,41.31
2024-03-24T09:12:49.322Z,41.19
2024-03-24T09:13:55.298Z,41.24
2024-03-24T09:15:01.487Z,41.42
2024-03-24T09:16:09.861Z,41.73
2024-03-24T09:17:16.497Z,42.10
2024-03-24T09:18:22.719Z,41.80
2024-03-24T09:19:29.808Z,41.90
2024-03-24T09:20:37.851Z,41.98
2024-03-24T09:21:44.059Z,42.06
2024-03-24T09:22:50.243Z,41.99
2024-03-24T09:23:56.962Z,41.58
2024-03-24T09:25:04.712Z,41.77
2024-03-24T09:26:11.125Z,41.64
2024-03-24T09:27:17.915Z,41.88
2024-03-24T09:28:24.166Z,42.54
2024-03-24T09:29:30.730Z,41.82
2024-03-24T09:30:37.128Z,41.40
2024-03-24T09:31:43.570Z,41.96
2024-03-24T09:32:50.412Z,41.51
2024-03-24T09:33:57.132Z,41.69
2024-03-24T09:35:13.052Z,40.83
2024-03-24T09:36:19.952Z,41.02
2024-03-24T09:37:28.412Z,41.04
2024-03-24T09:38:34.771Z,41.32
2024-03-24T09:39:42.905Z,41.51
2024-03-24T09:40:52.148Z,41.08
2024-03-24T09:42:01.223Z,40.80
2024-03-24T09:43:08.003Z,40.55
2024-03-24T09:44:15.604Z,40.75
2024-03-24T09:45:26.677Z,40.41
2024-03-24T09:46:35.768Z,40.73
2024-03-24T09:47:41.001Z,40.24
2024-03-24T09:48:47.602Z,40.50
2024-03-24T09:49:59.792Z,40.68
2024-03-24T09:51:09.437Z,39.97
2024-03-24T09:52:23.565Z,39.68
2024-03-24T09:53:32.090Z,40.03
2024-03-24T09:54:38.910Z,40.11
2024-03-24T09:55:50.097Z,39.89
2024-03-24T09:56:57.321Z,39.49
2024-03-24T09:58:10.713Z,39.74
2024-03-24T09:59:19.306Z,39.24
2024-03-24T10:00:30.294Z,39.27
2024-03-24T10:01:40.232Z,39.27
2024-03-24T10:02:47.570Z,39.21
2024-03-24T10:03:54.027Z,39.00
2024-03-24T10:05:05.293Z,37.95
2024-03-24T10:06:13.613Z,37.50
2024-03-24T10:07:20.376Z,37.62
2024-03-24T10:08:36.282Z,37.61
2024-03-24T10:09:42.308Z,37.90
2024-03-24T10:10:49.713Z,37.85
2024-03-24T10:11:55.963Z,37.57
2024-03-24T10:13:05.422Z,37.38
2024-03-24T10:14:11.975Z,37.36
2024-03-24T10:15:23.971Z,37.23
2024-03-24T10:16:32.096Z,37.01
2024-03-24T10:17:38.943Z,37.09
2024-03-24T10:18:45.131Z,36.85
2024-03-24T10:19:52.856Z,36.66
2024-03-24T10:20:59.453Z,37.08
2024-03-24T10:22:06.670Z,36.49
2024-03-24T10:23:15.119Z,36.28
2024-03-24T10:24:23.477Z,36.64
2024-03-24T10:25:31.977Z,36.83
2024-03-24T10:26:38.730Z,35.94
2024-03-24T10:27:46.790Z,36.30
2024-03-24T10:28:53.728Z,35.76
2024-03-24T10:30:00.201Z,35.67
2024-03-24T10:31:09.817Z,35.67
2024-03-24T10:32:26.914Z,35.52
2024-03-24T10:33:45.990Z,35.79
2024-03-24T10:34:52.275Z,36.02
2024-03-24T10:36:01.865Z,36.04
2024-03-24T10:37:11.687Z,35.71
2024-03-24T10:38:19.690Z,35.65
2024-03-24T10:39:26.349Z,35.42
2024-03-24T10:40:34.425Z,35.50
2024-03-24T10:41:44.921Z,35.66
2024-03-24T10:42:54.826Z,36.22
2024-03-24T10:44:04.163Z,36.01
2024-03-24T10:45:16.358Z,35.98
2024-03-24T10:46:23.763Z,36.17
2024-03-24T10:47:37.333Z,35.79
2024-03-24T10:48:47.918Z,35.25
2024-03-24T10:49:59.732Z,35.44
2024-03-24T10:51:11.585Z,35.46
2024-03-24T10:52:22.744Z,36.11
2024-03-24T10:53:32.715Z,36.48
2024-03-24T10:54:42.432Z,36.83
2024-03-24T10:55:49.711Z,37.00
2024-03-24T10:56:56.571Z,37.34
2024-03-24T10:58:04.391Z,37.51
2024-03-24T10:59:12.818Z,37.79
2024-03-24T11:00:29.894Z,37.74
2024-03-24T11:01:37.414Z,37.70
2024-03-24T11:02:44.464Z,37.49
2024-03-24T11:03:55.626Z,37.45
2024-03-24T11:05:04.431Z,37.33
2024-03-24T11:06:15.573Z,37.11
2024-03-24T11:07:23.451Z,36.59
2024-03-24T11:08:29.689Z,36.75
2024-03-24T11:09:36.210Z,36.92
2024-03-24T11:10:45.494Z,37.32
2024-03-24T11:11:51.953Z,37.67
2024-03-24T11:12:59.735Z,38.17
2024-03-24T11:14:09.202Z,38.39
2024-03-24T11:15:20.283Z,38.54
2024-03-24T11:16:29.370Z,38.54
2024-03-24T11:17:37.272Z,38.43
2024-03-24T11:18:43.556Z,38.70
2024-03-24T11:19:53.873Z,38.80
2024-03-24T11:21:02.579Z,38.73
2024-03-24T11:22:11.505Z,38.44
2024-03-24T11:23:21.589Z,38.31
2024-03-24T11:24:31.615Z,38.14
2024-03-24T11:25:41.290Z,38.22
2024-03-24T11:26:52.633Z,38.75
2024-03-24T11:27:58.873Z,39.53
2024-03-24T11:29:05.590Z,39.49
2024-03-24T11:30:14.750Z,39.50
2024-03-24T11:31:36.647Z,39.96
2024-03-24T11:32:56.720Z,40.06
2024-03-24T11:34:05.061Z,40.32
2024-03-24T11:35:13.294Z,40.58
2024-03-24T11:36:25.125Z,40.95
2024-03-24T11:37:32.679Z,41.29
2024-03-24T11:38:40.564Z,41.78
2024-03-24T11:39:47.068Z,42.10
2024-03-24T11:40:54.368Z,42.36
2024-03-24T11:42:13.770Z,42.63
2024-03-24T11:43:24.271Z,42.70
2024-03-24T11:44:33.930Z,42.73
2024-03-24T11:45:44.335Z,42.84
2024-03-24T11:47:05.504Z,43.01
2024-03-24T11:48:33.118Z,42.76
2024-03-24T11:49:48.251Z,42.76
2024-03-24T11:50:56.484Z,42.71
2024-03-24T11:52:04.284Z,42.55
2024-03-24T11:53:11.532Z,42.57
2024-03-24T11:54:18.947Z,42.85
2024-03-24T11:55:29.221Z,42.67
2024-03-24T11:56:37.307Z,42.53
2024-03-24T11:57:44.111Z,42.45
2024-03-24T11:58:54.813Z,42.91
2024-03-24T12:00:03.015Z,43.26
2024-03-24T12:01:11.266Z,43.28
2024-03-24T12:02:17.494Z,43.59
2024-03-24T12:03:24.959Z,43.63
2024-03-24T12:04:31.442Z,43.81
2024-03-24T12:05:37.887Z,43.99
2024-03-24T12:06:46.504Z,43.86
2024-03-24T12:07:54.503Z,43.83
2024-03-24T12:09:02.063Z,43.71
2024-03-24T12:10:10.994Z,43.83
2024-03-24T12:11:18.151Z,43.88
2024-03-24T12:12:26.143Z,43.92
2024-03-24T12:13:33.058Z,43.73
2024-03-24T12:14:39.122Z,43.64
2024-03-24T12:15:47.949Z,43.90
2024-03-24T12:17:11.433Z,43.68
2024-03-24T12:18:20.207Z,43.20
2024-03-24T12:19:26.490Z,43.08
2024-03-24T12:20:32.753Z,43.18
2024-03-24T12:21:40.203Z,42.93
2024-03-24T12:22:46.972Z,42.67
2024-03-24T12:23:53.706Z,42.60
2024-03-24T12:25:02.298Z,42.16
2024-03-24T12:26:08.583Z,42.32
2024-03-24T12:27:17.180Z,42.17
2024-03-24T12:28:23.344Z,41.94
2024-03-24T12:29:31.624Z,41.84
2024-03-24T12:30:38.991Z,41.86
2024-03-24T12:31:48.635Z,42.08
2024-03-24T12:32:57.821Z,42.13
2024-03-24T12:34:04.193Z,42.04
2024-03-24T12:35:11.561Z,42.15
2024-03-24T12:36:18.094Z,42.69
2024-03-24T12:37:24.933Z,42.51
2024-03-24T12:38:32.198Z,42.69
2024-03-24T12:39:38.900Z,42.56
2024-03-24T12:40:55.321Z,42.67
2024-03-24T12:42:15.120Z,43.11
2024-03-24T12:43:25.580Z,43.57
2024-03-24T12:44:34.355Z,43.93
2024-03-24T12:45:53.748Z,44.39
2024-03-24T12:47:12.610Z,44.85
2024-03-24T12:48:20.339Z,45.30
2024-03-24T12:49:51.923Z,45.94
2024-03-24T12:51:01.605Z,46.65
2024-03-24T12:52:10.765Z,47.19
2024-03-24T12:53:35.468Z,47.60
2024-03-24T12:54:46.770Z,48.20
2024-03-24T12:56:00.491Z,48.60
2024-03-24T12:57:08.991Z,48.81
2024-03-24T12:58:17.175Z,49.05
2024-03-24T12:59:23.292Z,49.40
2024-03-24T13:00:31.552Z,49.87
2024-03-24T13:01:39.713Z,50.27
2024-03-24T13:02:46.499Z,50.63
2024-03-24T13:03:53.522Z,51.04
2024-03-24T13:04:59.525Z,51.57
2024-03-24T13:06:11.401Z,51.62
2024-03-24T13:07:18.553Z,52.30
2024-03-24T13:08:25.778Z,52.70
2024-03-24T13:09:32.944Z,52.97
2024-03-24T13:10:39.292Z,52.97
2024-03-24T13:11:45.437Z,53.47
2024-03-24T13:12:52.691Z,53.47
2024-03-24T13:13:59.358Z,54.07
2024-03-24T13:15:08.595Z,54.57
2024-03-24T13:16:20.778Z,54.34
2024-03-24T13:17:32.797Z,54.94
2024-03-24T13:18:45.405Z,54.99
2024-03-24T13:19:56.477Z,55.31
2024-03-24T13:21:08.064Z,55.01
2024-03-24T13:22:14.826Z,54.56
2024-03-24T13:23:25.057Z,54.56
2024-03-24T13:24:36.750Z,54.35
2024-03-24T13:25:47.325Z,53.96
2024-03-24T13:26:59.330Z,53.69
2024-03-24T13:28:09.059Z,53.99
2024-03-24T13:29:16.125Z,54.20
2024-03-24T13:30:22.442Z,54.27
2024-03-24T13:31:29.546Z,54.43
2024-03-24T13:32:35.514Z,54.38
2024-03-24T13:33:41.635Z,54.75
2024-03-24T13:34:49.788Z,54.85
2024-03-24T13:35:58.055Z,55.22
2024-03-24T13:37:14.924Z,55.40
2024-03-24T13:38:34.956Z,54.71
2024-03-24T13:39:55.621Z,54.79
2024-03-24T13:41:18.024Z,55.54
2024-03-24T13:42:37.188Z,55.70
2024-03-24T13:44:00.150Z,55.99
2024-03-24T13:45:15.548Z,56.52
2024-03-24T13:46:24.568Z,57.47
2024-03-24T13:47:36.281Z,58.31
2024-03-24T13:48:43.520Z,58.25
2024-03-24T13:49:49.852Z,58.52
2024-03-24T13:50:57.391Z,59.16
2024-03-24T13:52:08.292Z,59.41
2024-03-24T13:53:17.746Z,59.58
2024-03-24T13:54:25.595Z,59.97
2024-03-24T13:55:32.973Z,60.59
2024-03-24T13:56:39.312Z,60.57
2024-03-24T13:57:47.029Z,61.03
2024-03-24T13:58:53.144Z,61.41
2024-03-24T13:59:59.411Z,61.75
2024-03-24T14:01:07.097Z,62.38
2024-03-24T14:02:16.691Z,62.73
2024-03-24T14:03:22.986Z,63.85
2024-03-24T14:04:29.692Z,64.48
2024-03-24T14:05:36.398Z,65.19
2024-03-24T14:06:43.109Z,65.69
2024-03-24T14:07:49.692Z,66.26
2024-03-24T14:08:56.469Z,66.45
2024-03-24T14:10:06.174Z,67.67
2024-03-24T14:11:12.804Z,68.59
2024-03-24T14:12:23.951Z,69.12
2024-03-24T14:13:53.216Z,69.71
2024-03-24T14:15:10.146Z,70.61
2024-03-24T14:16:29.951Z,71.20
2024-03-24T14:17:50.519Z,71.82
2024-03-24T14:19:08.690Z,72.54
2024-03-24T14:20:16.591Z,72.38
2024-03-24T14:21:28.626Z,73.07
2024-03-24T14:22:41.598Z,73.49
2024-03-24T14:23:56.259Z,74.07
2024-03-24T14:25:09.697Z,74.14
2024-03-24T14:26:15.967Z,73.97
2024-03-24T14:27:22.545Z,74.48
2024-03-24T14:28:29.658Z,74.56
2024-03-24T14:29:35.747Z,74.69
2024-03-24T14:30:44.411Z,74.90
2024-03-24T14:31:53.312Z,74.78
2024-03-24T14:33:00.615Z,74.60
2024-03-24T14:34:06.899Z,74.69
2024-03-24T14:35:14.220Z,74.96
2024-03-24T14:36:48.384Z,74.79